createdAt,value
2022-09-01T00:00:30.493Z,89.90
2022-09-01T00:01:30.441Z,89.90
2022-09-01T00:02:30.552Z,89.90
2022-09-01T00:03:30.366Z,90.00
2022-09-01T00:04:30.450Z,90.00
2022-09-01T00:05:30.393Z,90.11
2022-09-01T00:06:30.364Z,90.21
2022-09-01T00:07:30.708Z,90.31
2022-09-01T00:08:30.357Z,90.31
2022-09-01T00:09:30.360Z,90.31
2022-09-01T00:10:30.375Z,90.41
2022-09-01T00:11:30.310Z,90.41
2022-09-01T00:12:30.291Z,90.21
2022-09-01T00:13:30.291Z,90.21
2022-09-01T00:14:31.111Z,90.11
2022-09-01T00:15:30.374Z,90.00
2022-09-01T00:16:30.271Z,90.00
2022-09-01T00:17:30.247Z,90.31
2022-09-01T00:18:30.259Z,90.41
2022-09-01T00:19:30.279Z,90.41
2022-09-01T00:20:30.221Z,90.52
2022-09-01T00:21:30.231Z,90.62
2022-09-01T00:22:30.192Z,90.52
2022-09-01T00:23:30.158Z,90.31
2022-09-01T00:24:30.174Z,90.21
2022-09-01T00:25:30.166Z,90.11
2022-09-01T00:26:30.153Z,90.11
2022-09-01T00:27:31.022Z,90.11
2022-09-01T00:28:30.431Z,90.31
2022-09-01T00:29:30.120Z,90.31
2022-09-01T00:30:30.160Z,90.41
2022-09-01T00:31:30.149Z,90.41
2022-09-01T00:32:30.093Z,90.41
2022-09-01T00:33:30.100Z,90.52
2022-09-01T00:34:30.040Z,90.52
2022-09-01T00:35:30.051Z,90.41
2022-09-01T00:36:30.063Z,90.45
2022-09-01T00:37:30.028Z,90.45
2022-09-01T00:38:30.005Z,90.56
2022-09-01T00:39:30.016Z,90.66
2022-09-01T00:40:30.098Z,90.66
2022-09-01T00:41:30.003Z,90.77
2022-09-01T00:42:30.025Z,90.97
2022-09-01T00:43:29.960Z,91.17
2022-09-01T00:44:31.394Z,91.27
2022-09-01T00:45:29.951Z,91.38
2022-09-01T00:46:29.985Z,91.38
2022-09-01T00:47:29.950Z,91.38
2022-09-01T00:48:29.956Z,91.38
2022-09-01T00:49:30.092Z,91.38
2022-09-01T00:50:29.918Z,91.38
2022-09-01T00:51:29.875Z,91.48
2022-09-01T00:52:29.877Z,91.58
2022-09-01T00:53:29.881Z,91.73
2022-09-01T00:54:29.842Z,91.93
2022-09-01T00:55:29.823Z,92.03
2022-09-01T00:56:29.855Z,92.03
2022-09-01T00:57:29.791Z,92.03
2022-09-01T00:58:29.867Z,92.24
2022-09-01T00:59:29.760Z,92.44
2022-09-01T01:00:29.806Z,92.44
2022-09-01T01:01:29.869Z,92.55
2022-09-01T01:02:29.802Z,92.55
2022-09-01T01:03:29.714Z,92.44
2022-09-01T01:04:29.749Z,92.44
2022-09-01T01:05:29.719Z,92.34
2022-09-01T01:06:30.737Z,92.19
2022-09-01T01:07:29.687Z,91.99
2022-09-01T01:08:29.717Z,91.78
2022-09-01T01:09:29.679Z,91.48
2022-09-01T01:10:29.685Z,91.38
2022-09-01T01:11:29.661Z,91.17
2022-09-01T01:12:29.652Z,91.17
2022-09-01T01:13:29.623Z,90.97
2022-09-01T01:14:29.630Z,90.97
2022-09-01T01:15:29.610Z,90.86
2022-09-01T01:16:29.932Z,90.77
2022-09-01T01:17:29.613Z,90.66
2022-09-01T01:18:29.583Z,90.56
2022-09-01T01:19:29.576Z,90.56
2022-09-01T01:20:29.555Z,90.60
2022-09-01T01:21:29.839Z,90.60
2022-09-01T01:22:29.533Z,90.70
2022-09-01T01:23:29.549Z,91.01
2022-09-01T01:24:29.510Z,91.22
2022-09-01T01:25:29.511Z,91.42
2022-09-01T01:26:29.487Z,91.63
2022-09-01T01:27:29.490Z,91.87
2022-09-01T01:28:29.464Z,91.97
2022-09-01T01:29:29.738Z,92.28
2022-09-01T01:30:29.530Z,92.59
2022-09-01T01:31:29.468Z,92.79
2022-09-01T01:32:29.439Z,93.10
2022-09-01T01:33:29.451Z,93.30
2022-09-01T01:34:29.496Z,93.51
2022-09-01T01:35:29.438Z,93.51
2022-09-01T01:36:29.404Z,93.62
2022-09-01T01:37:29.381Z,93.62
2022-09-01T01:38:29.367Z,93.62
2022-09-01T01:39:29.323Z,93.71
2022-09-01T01:40:29.429Z,93.71
2022-09-01T01:41:29.374Z,93.71
2022-09-01T01:42:29.346Z,93.71
2022-09-01T01:43:29.352Z,93.82
2022-09-01T01:44:29.299Z,93.92
2022-09-01T01:45:29.283Z,93.82
2022-09-01T01:46:29.326Z,93.71
2022-09-01T01:47:29.246Z,93.51
2022-09-01T01:48:29.242Z,93.30
2022-09-01T01:49:29.246Z,93.10
2022-09-01T01:50:29.318Z,93.00
2022-09-01T01:51:29.220Z,92.75
2022-09-01T01:52:29.201Z,92.69
2022-09-01T01:53:29.209Z,92.59
2022-09-01T01:54:29.188Z,92.49
2022-09-01T01:55:29.208Z,92.49
2022-09-01T01:56:29.150Z,92.49
2022-09-01T01:57:29.122Z,92.49
2022-09-01T01:58:29.128Z,92.49
2022-09-01T01:59:29.124Z,92.59
2022-09-01T02:00:30.526Z,92.69
2022-09-01T02:01:29.291Z,92.69
2022-09-01T02:02:29.152Z,92.90
2022-09-01T02:03:29.118Z,93.00
2022-09-01T02:04:29.060Z,93.00
2022-09-01T02:05:29.095Z,93.10
2022-09-01T02:06:29.152Z,93.00
2022-09-01T02:07:32.946Z,93.00
2022-09-01T02:08:29.060Z,92.90
2022-09-01T02:09:29.045Z,93.10
2022-09-01T02:10:29.021Z,93.10
2022-09-01T02:11:29.007Z,93.20
2022-09-01T02:12:29.010Z,93.20
2022-09-01T02:13:28.999Z,93.20
2022-09-01T02:14:28.955Z,93.10
2022-09-01T02:15:28.957Z,92.90
2022-09-01T02:16:28.991Z,92.79
2022-09-01T02:17:28.925Z,92.79
2022-09-01T02:18:28.909Z,92.90
2022-09-01T02:19:28.906Z,93.10
2022-09-01T02:20:28.897Z,93.10
2022-09-01T02:21:28.862Z,93.10
2022-09-01T02:22:28.863Z,93.20
2022-09-01T02:23:28.875Z,93.15
2022-09-01T02:24:28.841Z,93.10
2022-09-01T02:25:28.832Z,93.20
2022-09-01T02:26:28.839Z,93.15
2022-09-01T02:27:28.814Z,93.25
2022-09-01T02:28:28.805Z,93.25
2022-09-01T02:29:28.788Z,93.25
2022-09-01T02:30:28.807Z,93.35
2022-09-01T02:31:28.971Z,93.45
2022-09-01T02:32:28.810Z,93.55
2022-09-01T02:33:28.732Z,93.45
2022-09-01T02:34:28.754Z,93.45
2022-09-01T02:35:28.734Z,93.55
2022-09-01T02:36:28.734Z,93.55
2022-09-01T02:37:28.721Z,93.55
2022-09-01T02:38:28.702Z,93.66
2022-09-01T02:39:28.689Z,93.55
2022-09-01T02:40:28.778Z,93.55
2022-09-01T02:41:28.655Z,93.66
2022-09-01T02:42:28.928Z,93.76
2022-09-01T02:43:28.679Z,93.76
2022-09-01T02:44:28.623Z,93.86
2022-09-01T02:45:28.604Z,94.07
2022-09-01T02:46:28.600Z,94.17
2022-09-01T02:47:29.666Z,94.17
2022-09-01T02:48:28.622Z,94.27
2022-09-01T02:49:28.577Z,94.27
2022-09-01T02:50:28.560Z,94.27
2022-09-01T02:51:28.560Z,94.37
2022-09-01T02:52:28.567Z,94.58
2022-09-01T02:53:28.534Z,94.48
2022-09-01T02:54:28.529Z,94.58
2022-09-01T02:55:28.516Z,94.68
2022-09-01T02:56:28.517Z,94.68
2022-09-01T02:57:28.507Z,94.58
2022-09-01T02:58:28.488Z,94.68
2022-09-01T02:59:28.482Z,94.68
2022-09-01T03:00:28.459Z,94.78
2022-09-01T03:01:28.488Z,94.73
2022-09-01T03:02:28.535Z,94.83
2022-09-01T03:03:28.436Z,94.93
2022-09-01T03:04:28.463Z,94.93
2022-09-01T03:05:28.402Z,94.93
2022-09-01T03:06:28.417Z,95.03
2022-09-01T03:07:28.404Z,95.03
2022-09-01T03:08:28.404Z,95.03
2022-09-01T03:09:28.375Z,95.14
2022-09-01T03:10:28.342Z,95.24
2022-09-01T03:11:28.393Z,95.34
2022-09-01T03:12:28.359Z,95.44
2022-09-01T03:13:28.310Z,95.44
2022-09-01T03:14:28.321Z,95.69
2022-09-01T03:15:28.297Z,95.90
2022-09-01T03:16:28.295Z,96.00
2022-09-01T03:17:28.260Z,96.10
2022-09-01T03:18:28.245Z,96.20
2022-09-01T03:19:28.262Z,96.41
2022-09-01T03:20:28.278Z,96.51
2022-09-01T03:21:28.262Z,96.62
2022-09-01T03:22:28.255Z,96.62
2022-09-01T03:23:28.201Z,96.62
2022-09-01T03:24:28.202Z,96.62
2022-09-01T03:25:28.203Z,96.62
2022-09-01T03:26:28.174Z,96.62
2022-09-01T03:27:28.175Z,96.72
2022-09-01T03:28:28.202Z,96.72
2022-09-01T03:29:28.160Z,96.72
2022-09-01T03:30:28.144Z,96.72
2022-09-01T03:31:30.853Z,96.62
2022-09-01T03:32:28.100Z,96.62
2022-09-01T03:33:28.314Z,96.47
2022-09-01T03:34:28.095Z,96.51
2022-09-01T03:35:28.092Z,96.41
2022-09-01T03:36:28.076Z,96.41
2022-09-01T03:37:28.066Z,96.31
2022-09-01T03:38:28.078Z,96.31
2022-09-01T03:39:28.033Z,96.31
2022-09-01T03:40:28.074Z,96.41
2022-09-01T03:41:28.052Z,96.41
2022-09-01T03:42:28.023Z,96.41
2022-09-01T03:43:36.086Z,96.51
2022-09-01T03:44:29.074Z,96.62
2022-09-01T03:45:28.111Z,96.62
2022-09-01T03:46:27.951Z,96.62
2022-09-01T03:47:27.937Z,96.62
2022-09-01T03:48:27.944Z,96.62
2022-09-01T03:49:27.987Z,96.62
2022-09-01T03:50:27.900Z,96.51
2022-09-01T03:51:27.942Z,96.51
2022-09-01T03:52:27.923Z,96.41
2022-09-01T03:53:27.870Z,96.31
2022-09-01T03:54:27.891Z,96.31
2022-09-01T03:55:27.851Z,96.41
2022-09-01T03:56:27.853Z,96.41
2022-09-01T04:00:16.260Z,96.41
2022-09-01T04:01:01.246Z,96.51
2022-09-01T04:02:01.584Z,96.51
2022-09-01T04:03:01.779Z,96.51
2022-09-01T04:04:01.826Z,96.62
2022-09-01T04:05:06.420Z,96.62
2022-09-01T04:06:04.595Z,96.72
2022-09-01T04:07:01.465Z,96.62
2022-09-01T04:08:01.337Z,96.62
2022-09-01T04:09:01.191Z,96.72
2022-09-01T04:10:02.790Z,96.62
2022-09-01T04:11:01.496Z,96.62
2022-09-01T04:12:01.295Z,96.51
2022-09-01T04:13:01.358Z,96.51
2022-09-01T04:14:01.315Z,96.51
2022-09-01T04:15:01.511Z,96.45
2022-09-01T04:16:01.020Z,96.56
2022-09-01T04:17:01.685Z,96.56
2022-09-01T04:26:49.122Z,97.28
2022-09-01T04:27:49.093Z,97.44
2022-09-01T04:28:49.091Z,97.38
2022-09-01T04:29:49.071Z,97.38
2022-09-01T04:30:49.086Z,97.28
2022-09-01T04:31:49.146Z,97.17
2022-09-01T04:32:49.049Z,97.17
2022-09-01T04:33:49.025Z,97.17
2022-09-01T04:34:49.227Z,97.28
2022-09-01T04:35:49.014Z,97.28
2022-09-01T04:36:49.945Z,97.28
2022-09-01T04:37:49.984Z,97.28
2022-09-01T04:38:48.981Z,97.38
2022-09-01T04:39:53.750Z,97.38
2022-09-01T04:40:50.399Z,97.38
2022-09-01T04:41:48.943Z,97.48
2022-09-01T04:42:48.919Z,97.58
2022-09-01T04:43:48.916Z,97.58
2022-09-01T04:44:48.917Z,97.58
2022-09-01T04:45:48.923Z,97.58
2022-09-01T04:46:48.894Z,97.58
2022-09-01T04:47:48.900Z,97.58
2022-09-01T04:48:48.886Z,97.48
2022-09-01T04:49:48.860Z,97.48
2022-09-01T04:50:48.854Z,97.48
2022-09-01T04:51:53.084Z,97.48
2022-09-01T04:52:49.839Z,97.48
2022-09-01T04:53:49.004Z,97.48
2022-09-01T04:54:48.803Z,97.48
2022-09-01T04:55:49.920Z,97.44
2022-09-01T04:56:48.790Z,97.44
2022-09-01T04:57:48.761Z,97.44
2022-09-01T04:58:48.757Z,97.44
2022-09-01T04:59:48.753Z,97.44
2022-09-01T05:00:48.894Z,97.44
2022-09-01T05:01:48.750Z,97.33
2022-09-01T05:02:48.717Z,97.23
2022-09-01T05:03:48.702Z,97.23
2022-09-01T05:04:48.690Z,97.23
2022-09-01T05:05:48.771Z,97.13
2022-09-01T05:06:48.671Z,97.23
2022-09-01T05:07:48.653Z,97.33
2022-09-01T05:08:48.663Z,97.33
2022-09-01T05:09:48.650Z,97.33
2022-09-01T05:10:48.631Z,97.33
2022-09-01T05:11:48.631Z,97.23
2022-09-01T05:12:48.641Z,97.23
2022-09-01T05:13:48.600Z,97.13
2022-09-01T05:14:48.872Z,97.13
2022-09-01T05:15:48.562Z,97.03
2022-09-01T05:16:48.617Z,97.03
2022-09-01T05:17:48.543Z,97.03
2022-09-01T05:18:48.541Z,96.98
2022-09-01T05:19:48.522Z,96.98
2022-09-01T05:20:48.512Z,96.88
2022-09-01T05:21:48.508Z,96.98
2022-09-01T05:22:48.509Z,96.98
2022-09-01T05:23:48.480Z,96.98
2022-09-01T05:24:48.489Z,96.88
2022-09-01T05:25:48.477Z,96.88
2022-09-01T05:26:48.468Z,96.83
2022-09-01T05:27:48.439Z,96.83
2022-09-01T05:28:48.432Z,96.94
2022-09-01T05:29:48.417Z,96.83
2022-09-01T05:30:48.426Z,96.83
2022-09-01T05:31:49.484Z,96.83
2022-09-01T05:32:48.400Z,96.73
2022-09-01T05:33:48.378Z,96.69
2022-09-01T05:34:48.358Z,96.58
2022-09-01T05:35:48.348Z,96.48
2022-09-01T05:36:48.599Z,96.48
2022-09-01T05:37:48.335Z,96.38
2022-09-01T05:38:48.317Z,96.38
2022-09-01T05:39:48.318Z,96.17
2022-09-01T05:40:48.346Z,96.17
2022-09-01T05:41:48.285Z,95.97
2022-09-01T05:42:48.281Z,95.82
2022-09-01T05:43:48.271Z,95.72
2022-09-01T05:44:48.256Z,95.62
2022-09-01T05:46:05.639Z,95.41
2022-09-01T05:46:49.269Z,95.31
2022-09-01T05:47:48.231Z,95.17
2022-09-01T05:48:48.209Z,95.17
2022-09-01T05:49:48.213Z,95.06
2022-09-01T05:50:48.191Z,95.06
2022-09-01T05:51:50.784Z,94.96
2022-09-01T05:52:48.175Z,94.71
2022-09-01T05:53:48.158Z,94.60
2022-09-01T05:54:49.834Z,94.30
2022-09-01T05:55:48.135Z,93.95
2022-09-01T05:56:48.122Z,93.54
2022-09-01T05:57:48.125Z,93.24
2022-09-01T05:59:49.109Z,92.68
2022-09-01T06:00:48.085Z,92.47
2022-09-01T06:01:50.233Z,92.37
2022-09-01T06:02:48.185Z,92.27
2022-09-01T06:03:48.060Z,92.17
2022-09-01T06:04:48.031Z,92.02
2022-09-01T06:05:48.037Z,91.92
2022-09-01T06:07:06.622Z,91.82
2022-09-01T06:07:49.097Z,91.72
2022-09-01T06:08:47.991Z,91.72
2022-09-01T06:09:47.990Z,91.47
2022-09-01T06:10:48.012Z,91.57
2022-09-01T06:11:47.953Z,91.57
2022-09-01T06:12:48.707Z,91.33
2022-09-01T06:13:49.167Z,91.12
2022-09-01T06:14:47.951Z,90.81
2022-09-01T06:15:47.972Z,90.71
2022-09-01T06:16:47.909Z,90.57
2022-09-01T06:17:47.892Z,90.26
2022-09-01T06:18:47.893Z,89.75
2022-09-01T06:19:47.877Z,89.40
2022-09-01T06:20:47.890Z,88.79
2022-09-01T06:21:47.854Z,88.59
2022-09-01T06:22:47.911Z,88.65
2022-09-01T06:23:47.822Z,88.55
2022-09-01T06:24:53.274Z,88.24
2022-09-01T06:25:48.802Z,88.24
2022-09-01T06:26:47.790Z,88.10
2022-09-01T06:27:47.791Z,88.20
2022-09-01T06:28:47.777Z,87.49
2022-09-01T06:29:47.768Z,87.18
2022-09-01T06:30:47.760Z,87.14
2022-09-01T06:31:47.827Z,87.04
2022-09-01T06:32:47.741Z,86.63
2022-09-01T06:33:47.705Z,86.39
2022-09-01T06:34:47.714Z,85.88
2022-09-01T06:35:47.701Z,85.68
2022-09-01T06:36:47.688Z,85.64
2022-09-01T06:37:47.783Z,85.64
2022-09-01T06:38:47.861Z,85.33
2022-09-01T06:39:47.643Z,85.29
2022-09-01T06:40:47.723Z,85.29
2022-09-01T06:41:47.631Z,84.88
2022-09-01T06:42:47.636Z,84.54
2022-09-01T06:43:47.603Z,84.64
2022-09-01T06:44:47.604Z,84.44
2022-09-01T06:45:47.581Z,83.89
2022-09-01T06:46:47.642Z,83.08
2022-09-01T06:47:47.563Z,83.28
2022-09-01T06:48:47.557Z,83.14
2022-09-01T06:49:47.545Z,82.73
2022-09-01T06:51:48.516Z,82.43
2022-09-01T06:53:48.719Z,81.78
2022-09-01T06:54:47.481Z,81.38
2022-09-01T06:55:47.471Z,81.04
2022-09-01T06:58:05.814Z,80.73
2022-09-01T06:58:48.449Z,80.59
2022-09-01T06:59:47.436Z,80.49
2022-09-01T07:00:48.424Z,79.88
2022-09-01T07:01:47.482Z,80.15
2022-09-01T07:02:47.462Z,80.25
2022-09-01T07:03:47.408Z,80.76
2022-09-01T07:04:47.376Z,80.25
2022-09-01T07:06:03.040Z,79.40
2022-09-01T07:07:54.180Z,78.79
2022-09-01T07:08:05.263Z,78.49
2022-09-01T07:17:48.235Z,75.65
2022-09-01T07:18:58.458Z,75.45
2022-09-01T07:19:48.768Z,75.45
2022-09-01T07:21:02.868Z,75.10
2022-09-01T07:23:04.442Z,74.30
2022-09-01T07:24:07.612Z,73.69
2022-09-01T07:25:11.448Z,73.46
2022-09-01T07:26:01.431Z,73.46
2022-09-01T07:26:48.134Z,72.85
2022-09-01T07:27:47.137Z,72.95
2022-09-01T07:28:47.815Z,72.31
2022-09-01T07:29:47.119Z,72.51
2022-09-01T07:30:48.637Z,72.11
2022-09-01T07:31:50.414Z,71.60
2022-09-01T07:32:47.501Z,71.80
2022-09-01T07:33:51.660Z,71.87
2022-09-01T07:34:49.053Z,71.26
2022-09-01T07:38:47.852Z,70.53
2022-09-01T07:38:49.742Z,70.62
2022-09-01T07:39:49.489Z,70.39
2022-09-01T07:39:57.604Z,80.63
2022-09-01T07:43:47.959Z,69.59
2022-09-01T07:44:46.946Z,68.95
2022-09-01T07:45:57.565Z,68.74
2022-09-01T07:46:48.178Z,68.54
2022-09-01T07:47:54.375Z,68.85
2022-09-01T07:49:29.568Z,69.52
2022-09-01T07:50:24.106Z,68.91
2022-09-01T07:51:47.906Z,67.60
2022-09-01T07:52:46.865Z,67.60
2022-09-01T07:53:46.856Z,67.10
2022-09-01T07:54:46.826Z,67.07
2022-09-01T07:55:46.827Z,67.17
2022-09-01T07:56:46.811Z,67.07
2022-09-01T07:57:46.794Z,66.67
2022-09-01T07:58:46.776Z,66.53
2022-09-01T07:59:46.772Z,66.94
2022-09-01T08:00:46.768Z,66.63
2022-09-01T08:01:46.831Z,66.53
2022-09-01T08:02:46.780Z,66.43
2022-09-01T08:03:46.843Z,66.23
2022-09-01T08:04:46.718Z,66.00
2022-09-01T08:05:47.390Z,65.80
2022-09-01T08:06:46.700Z,65.59
2022-09-01T08:07:53.816Z,65.90
2022-09-01T08:08:47.680Z,65.59
2022-09-01T08:09:46.662Z,66.00
2022-09-01T08:10:48.987Z,65.70
2022-09-01T08:12:03.139Z,65.50
2022-09-01T08:12:56.387Z,65.06
2022-09-01T08:13:51.994Z,63.96
2022-09-01T08:14:46.617Z,64.16
2022-09-01T08:16:54.907Z,64.33
2022-09-01T08:17:51.634Z,64.33
2022-09-01T08:18:49.989Z,64.53
2022-09-01T08:19:46.564Z,64.43
2022-09-01T08:20:46.530Z,64.30
2022-09-01T08:21:46.534Z,63.70
2022-09-01T08:22:46.513Z,63.70
2022-09-01T08:23:46.522Z,63.70
2022-09-01T08:24:46.512Z,62.86
2022-09-01T08:25:46.502Z,62.46
2022-09-01T08:26:46.493Z,62.46
2022-09-01T08:27:46.470Z,62.06
2022-09-01T08:28:47.474Z,62.66
2022-09-01T08:29:47.448Z,62.76
2022-09-01T08:30:52.114Z,62.46
2022-09-01T08:31:47.478Z,62.46
2022-09-01T08:32:46.419Z,62.36
2022-09-01T08:33:46.404Z,62.66
2022-09-01T08:34:46.386Z,62.96
2022-09-01T08:35:46.387Z,62.36
2022-09-01T08:36:46.391Z,62.06
2022-09-01T08:37:46.354Z,62.33
2022-09-01T08:38:46.351Z,61.86
2022-09-01T08:39:46.327Z,62.06
2022-09-01T08:40:46.373Z,62.03
2022-09-01T08:41:47.149Z,62.03
2022-09-01T08:42:46.295Z,61.83
2022-09-01T08:43:46.296Z,62.06
2022-09-01T08:44:46.286Z,62.33
2022-09-01T08:45:46.280Z,62.13
2022-09-01T08:46:46.286Z,62.03
2022-09-01T08:48:15.404Z,61.63
2022-09-01T08:49:47.918Z,61.19
2022-09-01T08:50:46.228Z,61.80
2022-09-01T08:51:47.213Z,61.40
2022-09-01T08:52:46.192Z,61.47
2022-09-01T08:53:46.187Z,60.86
2022-09-01T08:54:46.729Z,60.47
2022-09-01T08:55:46.185Z,60.47
2022-09-01T08:56:46.160Z,60.33
2022-09-01T08:57:46.136Z,60.77
2022-09-01T08:58:46.132Z,60.44
2022-09-01T08:59:46.124Z,60.44
2022-09-01T09:00:50.476Z,59.44
2022-09-01T09:01:47.192Z,59.96
2022-09-01T09:02:46.209Z,60.33
2022-09-01T09:03:46.077Z,59.94
2022-09-01T09:04:46.085Z,59.20
2022-09-01T09:05:46.066Z,59.20
2022-09-01T09:06:46.031Z,59.00
2022-09-01T09:07:46.033Z,59.08
2022-09-01T09:08:46.011Z,58.58
2022-09-01T09:09:53.045Z,58.48
2022-09-01T09:10:47.005Z,57.87
2022-09-01T09:11:46.012Z,57.98
2022-09-01T09:12:49.421Z,58.37
2022-09-01T09:13:45.981Z,58.98
2022-09-01T09:14:45.962Z,58.78
2022-09-01T09:15:45.971Z,58.58
2022-09-01T09:16:45.923Z,57.37
2022-09-01T09:17:46.922Z,57.48
2022-09-01T09:19:01.081Z,57.05
2022-09-01T09:19:46.910Z,57.45
2022-09-01T09:20:45.895Z,57.92
2022-09-01T09:21:45.877Z,56.92
2022-09-01T09:22:45.869Z,57.22
2022-09-01T09:23:45.910Z,57.62
2022-09-01T09:24:46.558Z,56.82
2022-09-01T09:25:45.843Z,56.12
2022-09-01T09:26:45.814Z,55.92
2022-09-01T09:27:45.820Z,55.52
2022-09-01T09:28:45.802Z,56.22
2022-09-01T09:29:45.780Z,56.42
2022-09-01T09:30:45.829Z,57.02
2022-09-01T09:31:46.066Z,56.39
2022-09-01T09:33:16.091Z,55.89
2022-09-01T09:33:51.856Z,56.29
2022-09-01T09:34:46.754Z,56.09
2022-09-01T09:35:45.723Z,56.59
2022-09-01T09:36:50.985Z,55.97
2022-09-01T09:37:46.965Z,56.16
2022-09-01T09:38:45.692Z,54.97
2022-09-01T09:39:45.703Z,54.17
2022-09-01T09:41:10.405Z,54.27
2022-09-01T09:41:46.707Z,54.97
2022-09-01T09:42:45.902Z,55.47
2022-09-01T09:43:47.529Z,55.64
2022-09-01T09:44:45.619Z,54.94
2022-09-01T09:45:45.658Z,54.94
2022-09-01T09:46:45.611Z,54.64
2022-09-01T09:47:45.680Z,53.74
2022-09-01T09:48:45.588Z,53.84
2022-09-01T09:49:48.756Z,54.22
2022-09-01T09:50:45.591Z,53.29
2022-09-01T09:51:45.557Z,52.99
2022-09-01T09:52:45.533Z,52.67
2022-09-01T09:53:45.528Z,52.04
2022-09-01T09:54:45.509Z,51.92
2022-09-01T09:55:45.506Z,51.10
2022-09-01T09:56:45.513Z,50.48
2022-09-01T09:57:45.478Z,49.85
2022-09-01T09:58:45.488Z,47.82
2022-09-01T09:59:58.161Z,46.01
2022-09-01T10:00:46.460Z,44.48
2022-09-01T10:01:45.457Z,43.76
2022-09-01T10:02:45.443Z,43.12
2022-09-01T10:03:45.436Z,42.50
2022-09-01T10:04:45.398Z,41.81
2022-09-01T10:05:45.374Z,41.89
2022-09-01T10:06:45.387Z,41.67
2022-09-01T10:07:45.368Z,40.98
2022-09-01T10:08:45.659Z,40.80
2022-09-01T10:09:45.353Z,41.20
2022-09-01T10:10:45.347Z,41.10
2022-09-01T10:11:46.316Z,40.90
2022-09-01T10:12:45.978Z,40.41
2022-09-01T10:13:45.310Z,40.82
2022-09-01T10:14:53.150Z,40.60
2022-09-01T10:15:46.915Z,40.78
2022-09-01T10:16:46.053Z,40.60
2022-09-01T10:17:45.270Z,40.80
2022-09-01T10:18:45.253Z,40.92
2022-09-01T10:19:45.238Z,40.70
2022-09-01T10:20:45.243Z,40.90
2022-09-01T10:21:45.265Z,40.90
2022-09-01T10:22:45.206Z,40.62
2022-09-01T10:23:45.208Z,41.46
2022-09-01T10:24:45.959Z,41.14
2022-09-01T10:25:47.794Z,40.86
2022-09-01T10:26:45.175Z,41.38
2022-09-01T10:27:45.151Z,41.87
2022-09-01T10:28:49.558Z,41.60
2022-09-01T10:29:49.290Z,42.11
2022-09-01T10:30:45.208Z,42.09
2022-09-01T10:31:45.111Z,42.29
2022-09-01T10:32:50.878Z,41.60
2022-09-01T10:33:46.109Z,41.00
2022-09-01T10:34:45.093Z,40.52
2022-09-01T10:35:45.070Z,41.00
2022-09-01T10:36:54.460Z,41.09
2022-09-01T10:37:46.114Z,41.02
2022-09-01T10:38:50.356Z,40.82
2022-09-01T10:39:46.017Z,40.03
2022-09-01T10:40:49.233Z,40.62
2022-09-01T10:41:45.001Z,41.02
2022-09-01T10:42:45.572Z,41.52
2022-09-01T10:43:44.973Z,41.52
2022-09-01T10:44:44.975Z,40.01
2022-09-01T10:45:45.248Z,40.41
2022-09-01T10:46:50.457Z,40.72
2022-09-01T10:47:46.006Z,40.24
2022-09-01T10:48:48.691Z,39.95
2022-09-01T10:49:46.938Z,40.34
2022-09-01T10:50:44.920Z,40.05
2022-09-01T10:51:51.372Z,40.86
2022-09-01T10:52:50.509Z,40.88
2022-09-01T10:53:47.003Z,39.78
2022-09-01T10:54:52.771Z,40.80
2022-09-01T10:55:45.849Z,40.60
2022-09-01T10:56:51.169Z,38.89
2022-09-01T10:57:45.853Z,38.57
2022-09-01T10:59:56.859Z,38.32
2022-09-01T11:01:10.598Z,37.62
2022-09-01T11:01:49.878Z,37.70
2022-09-01T11:02:44.822Z,38.00
2022-09-01T11:03:51.464Z,37.88
2022-09-01T11:04:45.898Z,38.48
2022-09-01T11:05:44.743Z,38.68
2022-09-01T11:07:11.641Z,38.68
2022-09-01T11:08:01.802Z,37.88
2022-09-01T11:08:48.262Z,37.09
2022-09-01T11:09:45.705Z,37.13
2022-09-01T11:10:44.703Z,37.74
2022-09-01T11:11:44.675Z,37.94
2022-09-01T11:12:44.695Z,38.75
2022-09-01T11:13:49.172Z,39.05
2022-09-01T11:14:45.645Z,39.37
2022-09-01T11:15:45.036Z,39.86
2022-09-01T11:16:46.438Z,40.06
2022-09-01T11:17:44.620Z,39.84
2022-09-01T11:18:44.607Z,38.45
2022-09-01T11:19:44.739Z,38.83
2022-09-01T11:20:45.526Z,38.83
2022-09-01T11:21:44.579Z,38.62
2022-09-01T11:22:44.560Z,38.62
2022-09-01T11:23:44.546Z,39.21
2022-09-01T11:24:44.543Z,38.20
2022-09-01T11:25:44.519Z,37.51
2022-09-01T11:26:44.525Z,37.79
2022-09-01T11:27:44.521Z,38.28
2022-09-01T11:28:44.507Z,37.77
2022-09-01T11:29:44.483Z,37.75
2022-09-01T11:30:44.475Z,37.15
2022-09-01T11:31:44.528Z,36.94
2022-09-01T11:32:46.946Z,37.24
2022-09-01T11:33:44.444Z,36.52
2022-09-01T11:34:44.439Z,35.34
2022-09-01T11:35:44.435Z,35.75
2022-09-01T11:36:44.421Z,35.47
2022-09-01T11:37:44.398Z,36.50
2022-09-01T11:38:44.408Z,36.79
2022-09-01T11:39:44.370Z,37.19
2022-09-01T11:40:44.444Z,37.27
2022-09-01T11:41:44.362Z,37.17
2022-09-01T11:42:45.766Z,36.86
2022-09-01T11:43:44.351Z,36.35
2022-09-01T11:44:44.334Z,36.03
2022-09-01T11:45:44.343Z,36.01
2022-09-01T11:46:44.302Z,35.50
2022-09-01T11:47:44.489Z,35.30
2022-09-01T11:48:44.290Z,35.00
2022-09-01T11:49:44.281Z,33.90
2022-09-01T11:50:44.287Z,34.00
2022-09-01T11:51:44.269Z,33.51
2022-09-01T11:52:44.259Z,33.59
2022-09-01T11:53:44.237Z,33.67
2022-09-01T11:54:44.242Z,33.16
2022-09-01T11:55:44.223Z,32.87
2022-09-01T11:56:44.203Z,33.26
2022-09-01T11:57:44.331Z,34.18
2022-09-01T11:58:44.191Z,35.68
2022-09-01T11:59:44.177Z,36.10
2022-09-01T12:00:44.165Z,36.80
2022-09-01T12:01:44.168Z,36.84
2022-09-01T12:02:44.223Z,36.64
2022-09-01T12:03:44.295Z,36.86
2022-09-01T12:04:44.123Z,37.87
2022-09-01T12:05:44.118Z,37.81
2022-09-01T12:06:44.109Z,38.60
2022-09-01T12:07:44.100Z,38.50
2022-09-01T12:08:44.072Z,38.22
2022-09-01T12:09:44.074Z,38.93
2022-09-01T12:10:44.074Z,38.85
2022-09-01T12:11:44.055Z,39.15
2022-09-01T12:12:44.041Z,39.45
2022-09-01T12:13:44.049Z,38.85
2022-09-01T12:15:04.872Z,38.65
2022-09-01T12:16:06.934Z,38.02
2022-09-01T12:16:45.045Z,37.19
2022-09-01T12:17:43.992Z,36.68
2022-09-01T12:18:43.987Z,36.96
2022-09-01T12:19:43.964Z,36.03
2022-09-01T12:20:44.009Z,35.73
2022-09-01T12:21:43.968Z,35.61
2022-09-01T12:22:43.947Z,35.22
2022-09-01T12:23:43.922Z,34.83
2022-09-01T12:24:43.915Z,33.94
2022-09-01T12:25:43.900Z,33.42
2022-09-01T12:26:43.903Z,33.42
2022-09-01T12:27:43.882Z,33.21
2022-09-01T12:28:43.881Z,32.60
2022-09-01T12:29:43.854Z,32.92
2022-09-01T12:30:43.855Z,33.31
2022-09-01T12:31:43.895Z,33.52
2022-09-01T12:32:43.828Z,33.64
2022-09-01T12:33:43.813Z,33.85
2022-09-01T12:34:43.817Z,34.15
2022-09-01T12:35:43.790Z,34.34
2022-09-01T12:36:43.802Z,33.26
2022-09-01T12:37:43.803Z,33.67
2022-09-01T12:38:43.758Z,34.17
2022-09-01T12:39:44.720Z,33.78
2022-09-01T12:40:43.789Z,34.10
2022-09-01T12:41:43.738Z,34.59
2022-09-01T12:42:44.231Z,34.91
2022-09-01T12:43:44.101Z,35.21
2022-09-01T12:44:43.711Z,35.01
2022-09-01T12:45:43.706Z,34.91
2022-09-01T12:46:43.688Z,35.13
2022-09-01T12:47:43.671Z,35.42
2022-09-01T12:48:44.751Z,35.92
2022-09-01T12:49:50.098Z,35.42
2022-09-01T12:50:44.647Z,35.31
2022-09-01T12:51:43.850Z,35.41
2022-09-01T12:52:43.625Z,35.21
2022-09-01T12:53:43.603Z,34.48
2022-09-01T12:54:43.602Z,34.17
2022-09-01T12:55:50.778Z,32.98
2022-09-01T12:56:44.587Z,34.18
2022-09-01T12:57:43.555Z,32.79
2022-09-01T12:58:43.583Z,32.89
2022-09-01T12:59:43.538Z,33.40
2022-09-01T13:00:43.559Z,33.11
2022-09-01T13:01:43.625Z,32.98
2022-09-01T13:02:43.809Z,32.65
2022-09-01T13:03:43.508Z,31.93
2022-09-01T13:04:43.518Z,31.51
2022-09-01T13:05:43.476Z,31.78
2022-09-01T13:06:43.471Z,31.38
2022-09-01T13:07:43.456Z,30.27
2022-09-01T13:08:43.467Z,29.35
2022-09-01T13:09:43.429Z,29.34
2022-09-01T13:10:43.492Z,29.03
2022-09-01T13:12:44.415Z,29.03
2022-09-01T13:13:43.392Z,28.44
2022-09-01T13:14:43.399Z,28.64
2022-09-01T13:15:43.387Z,28.65
2022-09-01T13:16:43.398Z,29.05
2022-09-01T13:17:43.353Z,28.65
2022-09-01T13:19:44.377Z,28.72
2022-09-01T13:20:43.331Z,28.51
2022-09-01T13:21:43.338Z,28.12
2022-09-01T13:22:43.325Z,28.20
2022-09-01T13:23:43.340Z,28.09
2022-09-01T13:24:43.287Z,27.69
2022-09-01T13:25:43.306Z,28.23
2022-09-01T13:27:20.146Z,28.88
2022-09-01T13:27:44.265Z,29.80